Cowley, Canada
Current Conditions -  °F | °C
As of 7:00 AM on Saturday 25 Oct 2014 (Local Time) from CZPC Reporting Station
Overcast Overcast  
Wind Chill: 37°   Ceiling: 4800
Heat Index: 37°   Visibility: 9mi
Dew Point: 34°   Wind: 2mph
Humidity: 87%   Direction: 220°SW
Pressure: 29.98"   Gusts: NA
Location:  49.57°N, 114.07°W
Report Text: CZPC 251300Z AUTO 22002KT 9SM OVC048 03/01 A2998 RMK SLP175
Loading
Personal Weather Stations






























Interactive Weather Map
Tropical Storm Tracking
New forecast layout! Learn more

10-Day Weather Forecast

Advertisements
Track Severe Weather on mobile